Renchville, Illinois
Current Conditions -  °F | °C
As of 4:55 PM on Saturday 20 Dec 2014 (Local Time) from KC75 Reporting Station
Overcast Overcast  
Wind Chill: 32°   Ceiling: 4400
Heat Index: 32°   Visibility: 7mi
Dew Point: 27°   Wind: 3mph
Humidity: 80%   Direction: 150°SSE
Pressure: 30.24"   Gusts: NA
Location:  40.915°N, 89.5303°W
Report Text: KC75 202255Z AUTO 15003KT 7SM BKN044 OVC050 00/M03 A3024 RMK AO2 T00021029
Loading
Personal Weather Stations






























Interactive Weather Map New forecast layout! Learn more

10-Day Weather Forecast

Advertisements
Track Severe Weather on mobile